sensor_id;sensor_type;location;lat;lon;timestamp;P1;durP1;ratioP1;P2;durP2;ratioP2
71963;SDS011;59834;52.124;5.422;2023-03-01T00:00:40;12.10;;;5.05;;
71963;SDS011;59834;52.124;5.422;2023-03-01T00:03:07;9.68;;;4.63;;
71963;SDS011;59834;52.124;5.422;2023-03-01T00:05:34;10.70;;;5.28;;
71963;SDS011;59834;52.124;5.422;2023-03-01T00:08:00;10.90;;;5.60;;
71963;SDS011;59834;52.124;5.422;2023-03-01T00:10:26;10.52;;;5.03;;
71963;SDS011;59834;52.124;5.422;2023-03-01T00:12:53;11.10;;;4.95;;
71963;SDS011;59834;52.124;5.422;2023-03-01T00:15:21;11.38;;;5.60;;
71963;SDS011;59834;52.124;5.422;2023-03-01T00:17:47;14.32;;;6.35;;
71963;SDS011;59834;52.124;5.422;2023-03-01T00:20:13;14.20;;;5.97;;
71963;SDS011;59834;52.124;5.422;2023-03-01T00:22:40;12.98;;;5.40;;
71963;SDS011;59834;52.124;5.422;2023-03-01T00:25:07;10.85;;;4.55;;
71963;SDS011;59834;52.124;5.422;2023-03-01T00:27:33;11.57;;;5.47;;
71963;SDS011;59834;52.124;5.422;2023-03-01T00:30:00;12.63;;;5.55;;
71963;SDS011;59834;52.124;5.422;2023-03-01T00:32:26;10.37;;;4.83;;
71963;SDS011;59834;52.124;5.422;2023-03-01T00:34:53;7.53;;;4.57;;
71963;SDS011;59834;52.124;5.422;2023-03-01T00:37:23;8.95;;;4.75;;
71963;SDS011;59834;52.124;5.422;2023-03-01T00:39:50;8.98;;;4.95;;
71963;SDS011;59834;52.124;5.422;2023-03-01T00:42:16;10.05;;;4.82;;
71963;SDS011;59834;52.124;5.422;2023-03-01T00:44:43;8.93;;;5.13;;
71963;SDS011;59834;52.124;5.422;2023-03-01T00:47:10;9.20;;;4.43;;
71963;SDS011;59834;52.124;5.422;2023-03-01T00:49:36;10.10;;;4.82;;
71963;SDS011;59834;52.124;5.422;2023-03-01T00:52:03;12.27;;;5.72;;
71963;SDS011;59834;52.124;5.422;2023-03-01T00:54:30;8.73;;;4.82;;
71963;SDS011;59834;52.124;5.422;2023-03-01T00:56:56;12.60;;;5.53;;
71963;SDS011;59834;52.124;5.422;2023-03-01T00:59:23;10.45;;;4.93;;
71963;SDS011;59834;52.124;5.422;2023-03-01T01:01:49;16.00;;;5.45;;
71963;SDS011;59834;52.124;5.422;2023-03-01T01:04:16;10.80;;;5.40;;
71963;SDS011;59834;52.124;5.422;2023-03-01T01:06:45;7.55;;;4.63;;
71963;SDS011;59834;52.124;5.422;2023-03-01T01:09:14;6.87;;;4.87;;
71963;SDS011;59834;52.124;5.422;2023-03-01T01:11:46;8.50;;;4.68;;
71963;SDS011;59834;52.124;5.422;2023-03-01T01:14:14;10.38;;;5.35;;
71963;SDS011;59834;52.124;5.422;2023-03-01T01:16:41;9.43;;;5.18;;
71963;SDS011;59834;52.124;5.422;2023-03-01T01:19:09;8.60;;;4.93;;
71963;SDS011;59834;52.124;5.422;2023-03-01T01:21:36;8.60;;;5.50;;
71963;SDS011;59834;52.124;5.422;2023-03-01T01:24:03;7.55;;;5.07;;
71963;SDS011;59834;52.124;5.422;2023-03-01T01:26:31;13.40;;;5.40;;
71963;SDS011;59834;52.124;5.422;2023-03-01T01:29:00;11.82;;;5.85;;
71963;SDS011;59834;52.124;5.422;2023-03-01T01:31:28;10.35;;;5.53;;
71963;SDS011;59834;52.124;5.422;2023-03-01T01:33:56;8.57;;;5.60;;
71963;SDS011;59834;52.124;5.422;2023-03-01T01:36:23;13.13;;;5.72;;
71963;SDS011;59834;52.124;5.422;2023-03-01T01:38:50;10.75;;;5.57;;
71963;SDS011;59834;52.124;5.422;2023-03-01T01:41:17;10.02;;;5.07;;
71963;SDS011;59834;52.124;5.422;2023-03-01T01:43:46;10.70;;;5.70;;
71963;SDS011;59834;52.124;5.422;2023-03-01T01:46:31;9.17;;;5.20;;
71963;SDS011;59834;52.124;5.422;2023-03-01T01:49:00;13.30;;;6.32;;
71963;SDS011;59834;52.124;5.422;2023-03-01T01:51:31;10.95;;;5.97;;
71963;SDS011;59834;52.124;5.422;2023-03-01T01:54:14;16.50;;;6.38;;
71963;SDS011;59834;52.124;5.422;2023-03-01T01:56:47;12.05;;;6.80;;
71963;SDS011;59834;52.124;5.422;2023-03-01T01:59:23;10.70;;;5.93;;
71963;SDS011;59834;52.124;5.422;2023-03-01T02:02:09;10.95;;;5.32;;
71963;SDS011;59834;52.124;5.422;2023-03-01T02:04:40;8.82;;;5.60;;
71963;SDS011;59834;52.124;5.422;2023-03-01T02:07:21;11.57;;;6.07;;
71963;SDS011;59834;52.124;5.422;2023-03-01T02:09:50;14.20;;;6.63;;
71963;SDS011;59834;52.124;5.422;2023-03-01T02:15:12;11.55;;;5.53;;
71963;SDS011;59834;52.124;5.422;2023-03-01T02:30:47;12.18;;;6.13;;
71963;SDS011;59834;52.124;5.422;2023-03-01T02:33:39;10.57;;;5.70;;
71963;SDS011;59834;52.124;5.422;2023-03-01T02:36:10;12.65;;;6.15;;
71963;SDS011;59834;52.124;5.422;2023-03-01T02:42:01;9.63;;;6.07;;
71963;SDS011;59834;52.124;5.422;2023-03-01T03:05:04;11.15;;;5.13;;
71963;SDS011;59834;52.124;5.422;2023-03-01T03:07:36;9.80;;;5.50;;
71963;SDS011;59834;52.124;5.422;2023-03-01T03:10:06;13.65;;;6.35;;
71963;SDS011;59834;52.124;5.422;2023-03-01T03:12:39;14.77;;;6.17;;
71963;SDS011;59834;52.124;5.422;2023-03-01T03:15:06;12.00;;;5.82;;
71963;SDS011;59834;52.124;5.422;2023-03-01T03:17:40;9.75;;;5.65;;
71963;SDS011;59834;52.124;5.422;2023-03-01T03:20:12;14.80;;;6.63;;
71963;SDS011;59834;52.124;5.422;2023-03-01T03:25:52;11.60;;;6.60;;
71963;SDS011;59834;52.124;5.422;2023-03-01T03:28:22;11.82;;;5.70;;
71963;SDS011;59834;52.124;5.422;2023-03-01T03:30:52;11.70;;;6.55;;
71963;SDS011;59834;52.124;5.422;2023-03-01T03:36:19;15.43;;;6.75;;
71963;SDS011;59834;52.124;5.422;2023-03-01T03:38:49;10.50;;;6.50;;
71963;SDS011;59834;52.124;5.422;2023-03-01T03:41:16;10.55;;;5.43;;
71963;SDS011;59834;52.124;5.422;2023-03-01T03:51:14;12.30;;;6.43;;
71963;SDS011;59834;52.124;5.422;2023-03-01T04:01:53;12.40;;;5.97;;
71963;SDS011;59834;52.124;5.422;2023-03-01T04:04:20;13.23;;;5.95;;
71963;SDS011;59834;52.124;5.422;2023-03-01T04:06:48;12.55;;;6.50;;
71963;SDS011;59834;52.124;5.422;2023-03-01T04:12:33;12.07;;;5.65;;
71963;SDS011;59834;52.124;5.422;2023-03-01T04:32:21;10.98;;;6.22;;
71963;SDS011;59834;52.124;5.422;2023-03-01T04:41:49;8.77;;;5.03;;
71963;SDS011;59834;52.124;5.422;2023-03-01T04:44:16;9.98;;;5.35;;
71963;SDS011;59834;52.124;5.422;2023-03-01T04:46:48;10.00;;;5.15;;
71963;SDS011;59834;52.124;5.422;2023-03-01T04:49:19;10.02;;;5.88;;
71963;SDS011;59834;52.124;5.422;2023-03-01T04:51:45;12.98;;;5.15;;
71963;SDS011;59834;52.124;5.422;2023-03-01T04:58:08;8.32;;;4.90;;
71963;SDS011;59834;52.124;5.422;2023-03-01T05:11:56;9.07;;;4.53;;
71963;SDS011;59834;52.124;5.422;2023-03-01T05:14:22;5.05;;;3.65;;
71963;SDS011;59834;52.124;5.422;2023-03-01T05:16:49;14.30;;;4.82;;
71963;SDS011;59834;52.124;5.422;2023-03-01T05:19:16;10.40;;;4.97;;
71963;SDS011;59834;52.124;5.422;2023-03-01T05:21:43;9.48;;;4.45;;
71963;SDS011;59834;52.124;5.422;2023-03-01T05:24:28;7.17;;;4.10;;
71963;SDS011;59834;52.124;5.422;2023-03-01T05:26:56;10.40;;;5.30;;
71963;SDS011;59834;52.124;5.422;2023-03-01T05:29:23;8.55;;;5.13;;
71963;SDS011;59834;52.124;5.422;2023-03-01T05:31:55;10.40;;;5.25;;
71963;SDS011;59834;52.124;5.422;2023-03-01T05:34:28;10.00;;;5.93;;
71963;SDS011;59834;52.124;5.422;2023-03-01T05:36:56;12.67;;;5.93;;
71963;SDS011;59834;52.124;5.422;2023-03-01T05:39:23;12.63;;;7.40;;
71963;SDS011;59834;52.124;5.422;2023-03-01T05:41:52;15.35;;;6.80;;
71963;SDS011;59834;52.124;5.422;2023-03-01T05:44:23;12.07;;;6.95;;
71963;SDS011;59834;52.124;5.422;2023-03-01T05:46:51;10.25;;;6.45;;
71963;SDS011;59834;52.124;5.422;2023-03-01T05:49:18;11.40;;;5.43;;
71963;SDS011;59834;52.124;5.422;2023-03-01T05:51:48;9.13;;;5.72;;
71963;SDS011;59834;52.124;5.422;2023-03-01T05:54:16;12.02;;;6.68;;
71963;SDS011;59834;52.124;5.422;2023-03-01T05:56:43;12.13;;;5.40;;
71963;SDS011;59834;52.124;5.422;2023-03-01T05:59:10;8.88;;;5.25;;
71963;SDS011;59834;52.124;5.422;2023-03-01T06:01:37;9.97;;;5.03;;
71963;SDS011;59834;52.124;5.422;2023-03-01T06:04:04;10.32;;;5.25;;
71963;SDS011;59834;52.124;5.422;2023-03-01T06:06:34;8.27;;;5.25;;
71963;SDS011;59834;52.124;5.422;2023-03-01T06:09:04;9.20;;;5.00;;
71963;SDS011;59834;52.124;5.422;2023-03-01T06:11:33;13.38;;;5.38;;
71963;SDS011;59834;52.124;5.422;2023-03-01T06:14:01;9.87;;;5.03;;
71963;SDS011;59834;52.124;5.422;2023-03-01T06:16:28;11.40;;;5.60;;
71963;SDS011;59834;52.124;5.422;2023-03-01T06:18:55;12.20;;;5.97;;
71963;SDS011;59834;52.124;5.422;2023-03-01T06:21:22;8.18;;;5.05;;
71963;SDS011;59834;52.124;5.422;2023-03-01T06:23:48;8.70;;;5.00;;
71963;SDS011;59834;52.124;5.422;2023-03-01T06:26:15;14.53;;;5.87;;
71963;SDS011;59834;52.124;5.422;2023-03-01T06:28:41;9.05;;;5.18;;
71963;SDS011;59834;52.124;5.422;2023-03-01T06:31:08;8.48;;;5.18;;
71963;SDS011;59834;52.124;5.422;2023-03-01T06:33:35;13.23;;;5.57;;
71963;SDS011;59834;52.124;5.422;2023-03-01T06:36:03;13.32;;;5.80;;
71963;SDS011;59834;52.124;5.422;2023-03-01T06:38:29;10.10;;;4.97;;
71963;SDS011;59834;52.124;5.422;2023-03-01T06:40:56;8.90;;;5.53;;
71963;SDS011;59834;52.124;5.422;2023-03-01T06:43:23;10.40;;;5.55;;
71963;SDS011;59834;52.124;5.422;2023-03-01T06:45:50;10.13;;;4.93;;
71963;SDS011;59834;52.124;5.422;2023-03-01T06:48:17;8.90;;;5.22;;
71963;SDS011;59834;52.124;5.422;2023-03-01T06:50:43;10.47;;;4.97;;
71963;SDS011;59834;52.124;5.422;2023-03-01T06:53:10;9.52;;;4.80;;
71963;SDS011;59834;52.124;5.422;2023-03-01T06:55:36;8.68;;;5.15;;
71963;SDS011;59834;52.124;5.422;2023-03-01T06:58:03;8.40;;;5.00;;
71963;SDS011;59834;52.124;5.422;2023-03-01T07:00:30;11.07;;;5.90;;
71963;SDS011;59834;52.124;5.422;2023-03-01T07:03:00;14.63;;;5.60;;
71963;SDS011;59834;52.124;5.422;2023-03-01T07:05:28;8.35;;;5.53;;
71963;SDS011;59834;52.124;5.422;2023-03-01T07:07:56;8.35;;;5.28;;
71963;SDS011;59834;52.124;5.422;2023-03-01T07:10:23;9.80;;;5.25;;
71963;SDS011;59834;52.124;5.422;2023-03-01T07:12:50;9.30;;;5.30;;
71963;SDS011;59834;52.124;5.422;2023-03-01T07:15:16;8.03;;;5.63;;
71963;SDS011;59834;52.124;5.422;2023-03-01T07:17:43;16.70;;;7.22;;
71963;SDS011;59834;52.124;5.422;2023-03-01T07:20:11;14.43;;;6.32;;
71963;SDS011;59834;52.124;5.422;2023-03-01T07:22:39;14.68;;;7.15;;
71963;SDS011;59834;52.124;5.422;2023-03-01T07:25:08;14.80;;;6.90;;
71963;SDS011;59834;52.124;5.422;2023-03-01T07:27:35;10.13;;;6.43;;
71963;SDS011;59834;52.124;5.422;2023-03-01T07:30:03;12.40;;;6.40;;
71963;SDS011;59834;52.124;5.422;2023-03-01T07:32:29;15.63;;;6.47;;
71963;SDS011;59834;52.124;5.422;2023-03-01T07:34:56;13.95;;;6.55;;
71963;SDS011;59834;52.124;5.422;2023-03-01T07:37:22;14.02;;;7.63;;
71963;SDS011;59834;52.124;5.422;2023-03-01T07:39:49;13.70;;;8.40;;
71963;SDS011;59834;52.124;5.422;2023-03-01T07:42:15;11.25;;;6.93;;
71963;SDS011;59834;52.124;5.422;2023-03-01T07:44:43;17.08;;;7.70;;
71963;SDS011;59834;52.124;5.422;2023-03-01T07:47:11;17.90;;;7.45;;
71963;SDS011;59834;52.124;5.422;2023-03-01T07:49:38;14.15;;;6.88;;
71963;SDS011;59834;52.124;5.422;2023-03-01T07:52:06;26.17;;;8.63;;
71963;SDS011;59834;52.124;5.422;2023-03-01T07:54:33;14.00;;;7.20;;
71963;SDS011;59834;52.124;5.422;2023-03-01T07:56:59;9.85;;;6.65;;
71963;SDS011;59834;52.124;5.422;2023-03-01T07:59:27;12.90;;;6.55;;
71963;SDS011;59834;52.124;5.422;2023-03-01T08:01:56;11.90;;;6.45;;
71963;SDS011;59834;52.124;5.422;2023-03-01T08:04:23;12.10;;;6.17;;
71963;SDS011;59834;52.124;5.422;2023-03-01T08:06:54;8.98;;;5.40;;
71963;SDS011;59834;52.124;5.422;2023-03-01T08:09:21;11.07;;;5.75;;
71963;SDS011;59834;52.124;5.422;2023-03-01T08:11:48;11.10;;;4.82;;
71963;SDS011;59834;52.124;5.422;2023-03-01T08:14:15;7.60;;;4.40;;
71963;SDS011;59834;52.124;5.422;2023-03-01T08:16:41;9.60;;;3.97;;
71963;SDS011;59834;52.124;5.422;2023-03-01T08:19:09;6.43;;;4.35;;
71963;SDS011;59834;52.124;5.422;2023-03-01T08:21:37;9.50;;;4.47;;
71963;SDS011;59834;52.124;5.422;2023-03-01T08:24:04;4.30;;;3.00;;
71963;SDS011;59834;52.124;5.422;2023-03-01T08:26:32;7.28;;;3.10;;
71963;SDS011;59834;52.124;5.422;2023-03-01T08:28:59;6.60;;;3.37;;
71963;SDS011;59834;52.124;5.422;2023-03-01T08:31:30;7.05;;;4.00;;
71963;SDS011;59834;52.124;5.422;2023-03-01T08:34:05;6.32;;;3.47;;
71963;SDS011;59834;52.124;5.422;2023-03-01T08:36:38;8.70;;;3.40;;
71963;SDS011;59834;52.124;5.422;2023-03-01T08:39:06;9.18;;;3.08;;
71963;SDS011;59834;52.124;5.422;2023-03-01T08:41:34;10.03;;;3.37;;
71963;SDS011;59834;52.124;5.422;2023-03-01T08:44:00;8.02;;;3.47;;
71963;SDS011;59834;52.124;5.422;2023-03-01T08:46:27;5.13;;;2.53;;
71963;SDS011;59834;52.124;5.422;2023-03-01T08:48:55;9.60;;;2.90;;
71963;SDS011;59834;52.124;5.422;2023-03-01T08:51:22;5.57;;;2.92;;
71963;SDS011;59834;52.124;5.422;2023-03-01T08:53:49;5.07;;;3.17;;
71963;SDS011;59834;52.124;5.422;2023-03-01T08:56:16;8.85;;;3.70;;
71963;SDS011;59834;52.124;5.422;2023-03-01T08:58:45;7.10;;;3.33;;
71963;SDS011;59834;52.124;5.422;2023-03-01T09:01:14;8.90;;;3.95;;
71963;SDS011;59834;52.124;5.422;2023-03-01T09:03:43;5.47;;;3.40;;
71963;SDS011;59834;52.124;5.422;2023-03-01T09:06:10;10.93;;;3.73;;
71963;SDS011;59834;52.124;5.422;2023-03-01T09:08:38;11.95;;;4.13;;
71963;SDS011;59834;52.124;5.422;2023-03-01T09:11:08;7.97;;;4.03;;
71963;SDS011;59834;52.124;5.422;2023-03-01T09:13:36;4.93;;;3.05;;
71963;SDS011;59834;52.124;5.422;2023-03-01T09:16:04;6.53;;;3.50;;
71963;SDS011;59834;52.124;5.422;2023-03-01T09:18:32;9.30;;;4.67;;
71963;SDS011;59834;52.124;5.422;2023-03-01T09:21:00;7.90;;;3.83;;
71963;SDS011;59834;52.124;5.422;2023-03-01T09:23:40;7.35;;;3.40;;
71963;SDS011;59834;52.124;5.422;2023-03-01T09:26:09;7.78;;;3.13;;
71963;SDS011;59834;52.124;5.422;2023-03-01T09:28:37;6.30;;;3.20;;
71963;SDS011;59834;52.124;5.422;2023-03-01T09:31:04;3.60;;;2.00;;
71963;SDS011;59834;52.124;5.422;2023-03-01T09:33:32;4.25;;;2.13;;
71963;SDS011;59834;52.124;5.422;2023-03-01T09:36:00;4.80;;;2.00;;
71963;SDS011;59834;52.124;5.422;2023-03-01T09:38:29;5.32;;;2.22;;
71963;SDS011;59834;52.124;5.422;2023-03-01T09:40:56;3.83;;;1.80;;
71963;SDS011;59834;52.124;5.422;2023-03-01T09:45:53;5.78;;;2.42;;
71963;SDS011;59834;52.124;5.422;2023-03-01T09:48:23;8.95;;;2.45;;
71963;SDS011;59834;52.124;5.422;2023-03-01T09:50:53;5.28;;;2.00;;
71963;SDS011;59834;52.124;5.422;2023-03-01T09:53:20;5.28;;;2.47;;
71963;SDS011;59834;52.124;5.422;2023-03-01T09:56:05;3.83;;;1.57;;
71963;SDS011;59834;52.124;5.422;2023-03-01T09:58:56;7.40;;;2.00;;
71963;SDS011;59834;52.124;5.422;2023-03-01T10:01:35;3.88;;;1.38;;
71963;SDS011;59834;52.124;5.422;2023-03-01T10:07:02;2.92;;;1.27;;
71963;SDS011;59834;52.124;5.422;2023-03-01T10:09:38;2.90;;;1.47;;
71963;SDS011;59834;52.124;5.422;2023-03-01T10:12:12;2.95;;;1.15;;
71963;SDS011;59834;52.124;5.422;2023-03-01T10:14:48;2.97;;;0.85;;
71963;SDS011;59834;52.124;5.422;2023-03-01T10:17:25;4.28;;;0.68;;
71963;SDS011;59834;52.124;5.422;2023-03-01T10:19:53;2.75;;;1.25;;
71963;SDS011;59834;52.124;5.422;2023-03-01T10:22:29;2.77;;;1.30;;
71963;SDS011;59834;52.124;5.422;2023-03-01T10:24:58;3.13;;;1.55;;
71963;SDS011;59834;52.124;5.422;2023-03-01T10:27:50;5.47;;;1.63;;
71963;SDS011;59834;52.124;5.422;2023-03-01T10:33:10;5.82;;;2.38;;
71963;SDS011;59834;52.124;5.422;2023-03-01T10:35:43;6.17;;;2.17;;
71963;SDS011;59834;52.124;5.422;2023-03-01T10:38:11;3.60;;;1.08;;
71963;SDS011;59834;52.124;5.422;2023-03-01T10:40:55;3.80;;;1.58;;
71963;SDS011;59834;52.124;5.422;2023-03-01T10:43:24;3.28;;;1.27;;
71963;SDS011;59834;52.124;5.422;2023-03-01T10:45:53;4.20;;;1.05;;
71963;SDS011;59834;52.124;5.422;2023-03-01T10:48:20;1.60;;;0.60;;
71963;SDS011;59834;52.124;5.422;2023-03-01T10:53:26;2.95;;;1.02;;
71963;SDS011;59834;52.124;5.422;2023-03-01T10:55:56;3.97;;;0.90;;
71963;SDS011;59834;52.124;5.422;2023-03-01T10:58:23;1.58;;;0.50;;
71963;SDS011;59834;52.124;5.422;2023-03-01T11:00:51;4.70;;;0.90;;
71963;SDS011;59834;52.124;5.422;2023-03-01T11:03:24;6.30;;;0.80;;
71963;SDS011;59834;52.124;5.422;2023-03-01T11:05:58;1.92;;;0.60;;
71963;SDS011;59834;52.124;5.422;2023-03-01T11:08:32;2.40;;;0.93;;
71963;SDS011;59834;52.124;5.422;2023-03-01T11:11:13;2.38;;;0.60;;
71963;SDS011;59834;52.124;5.422;2023-03-01T11:14:00;2.10;;;0.97;;
71963;SDS011;59834;52.124;5.422;2023-03-01T11:17:33;5.30;;;0.80;;
71963;SDS011;59834;52.124;5.422;2023-03-01T11:19:46;3.45;;;0.80;;
71963;SDS011;59834;52.124;5.422;2023-03-01T11:22:28;1.48;;;0.32;;
71963;SDS011;59834;52.124;5.422;2023-03-01T11:24:55;1.95;;;0.80;;
71963;SDS011;59834;52.124;5.422;2023-03-01T11:27:40;3.17;;;0.90;;
71963;SDS011;59834;52.124;5.422;2023-03-01T11:30:15;2.10;;;0.77;;
71963;SDS011;59834;52.124;5.422;2023-03-01T11:32:50;3.22;;;0.80;;
71963;SDS011;59834;52.124;5.422;2023-03-01T11:35:27;2.40;;;0.70;;
71963;SDS011;59834;52.124;5.422;2023-03-01T11:40:29;3.43;;;0.60;;
71963;SDS011;59834;52.124;5.422;2023-03-01T11:43:20;1.58;;;0.50;;
71963;SDS011;59834;52.124;5.422;2023-03-01T11:49:23;1.70;;;0.60;;
71963;SDS011;59834;52.124;5.422;2023-03-01T11:55:24;3.70;;;1.00;;
71963;SDS011;59834;52.124;5.422;2023-03-01T12:03:43;2.42;;;0.80;;
71963;SDS011;59834;52.124;5.422;2023-03-01T12:25:39;3.03;;;0.90;;
71963;SDS011;59834;52.124;5.422;2023-03-01T12:34:03;2.53;;;1.00;;
71963;SDS011;59834;52.124;5.422;2023-03-01T12:44:57;2.58;;;1.00;;
71963;SDS011;59834;52.124;5.422;2023-03-01T12:50:17;2.07;;;0.90;;
71963;SDS011;59834;52.124;5.422;2023-03-01T12:52:51;2.00;;;1.15;;
71963;SDS011;59834;52.124;5.422;2023-03-01T12:58:24;3.17;;;1.40;;
71963;SDS011;59834;52.124;5.422;2023-03-01T13:09:38;2.08;;;0.65;;
71963;SDS011;59834;52.124;5.422;2023-03-01T13:18:00;4.83;;;1.43;;
71963;SDS011;59834;52.124;5.422;2023-03-01T13:23:12;2.13;;;0.75;;
71963;SDS011;59834;52.124;5.422;2023-03-01T13:26:13;3.00;;;1.00;;
71963;SDS011;59834;52.124;5.422;2023-03-01T13:33:45;4.15;;;0.90;;
71963;SDS011;59834;52.124;5.422;2023-03-01T13:36:47;1.92;;;0.98;;
71963;SDS011;59834;52.124;5.422;2023-03-01T13:39:29;2.10;;;0.73;;
71963;SDS011;59834;52.124;5.422;2023-03-01T13:42:25;3.10;;;1.02;;
71963;SDS011;59834;52.124;5.422;2023-03-01T13:44:53;3.00;;;0.77;;
71963;SDS011;59834;52.124;5.422;2023-03-01T13:47:21;6.72;;;1.00;;
71963;SDS011;59834;52.124;5.422;2023-03-01T13:56:36;4.13;;;1.50;;
71963;SDS011;59834;52.124;5.422;2023-03-01T14:05:08;2.90;;;0.93;;
71963;SDS011;59834;52.124;5.422;2023-03-01T14:07:35;3.70;;;1.10;;
71963;SDS011;59834;52.124;5.422;2023-03-01T14:10:11;2.95;;;1.00;;
71963;SDS011;59834;52.124;5.422;2023-03-01T14:30:47;3.47;;;0.90;;
71963;SDS011;59834;52.124;5.422;2023-03-01T14:44:21;2.42;;;0.90;;
71963;SDS011;59834;52.124;5.422;2023-03-01T14:50:43;5.25;;;1.48;;
71963;SDS011;59834;52.124;5.422;2023-03-01T14:53:47;2.80;;;0.93;;
71963;SDS011;59834;52.124;5.422;2023-03-01T15:05:50;3.65;;;0.90;;
71963;SDS011;59834;52.124;5.422;2023-03-01T15:08:20;3.55;;;1.13;;
71963;SDS011;59834;52.124;5.422;2023-03-01T15:14:05;5.47;;;1.08;;
71963;SDS011;59834;52.124;5.422;2023-03-01T15:18:02;3.20;;;0.63;;
71963;SDS011;59834;52.124;5.422;2023-03-01T15:23:41;4.40;;;1.08;;
71963;SDS011;59834;52.124;5.422;2023-03-01T15:26:21;2.05;;;0.90;;
71963;SDS011;59834;52.124;5.422;2023-03-01T15:28:56;2.53;;;1.13;;
71963;SDS011;59834;52.124;5.422;2023-03-01T15:31:26;2.70;;;1.00;;
71963;SDS011;59834;52.124;5.422;2023-03-01T15:46:46;3.70;;;0.67;;
71963;SDS011;59834;52.124;5.422;2023-03-01T16:20:52;4.67;;;1.10;;
71963;SDS011;59834;52.124;5.422;2023-03-01T16:23:20;5.30;;;1.67;;
71963;SDS011;59834;52.124;5.422;2023-03-01T16:29:35;2.97;;;1.25;;
71963;SDS011;59834;52.124;5.422;2023-03-01T16:32:02;3.10;;;1.25;;
71963;SDS011;59834;52.124;5.422;2023-03-01T16:37:22;7.32;;;1.85;;
71963;SDS011;59834;52.124;5.422;2023-03-01T16:39:50;2.38;;;0.98;;
71963;SDS011;59834;52.124;5.422;2023-03-01T16:42:20;4.20;;;1.75;;
71963;SDS011;59834;52.124;5.422;2023-03-01T16:44:47;5.18;;;1.42;;
71963;SDS011;59834;52.124;5.422;2023-03-01T16:47:14;3.13;;;1.47;;
71963;SDS011;59834;52.124;5.422;2023-03-01T16:53:46;11.82;;;1.77;;
71963;SDS011;59834;52.124;5.422;2023-03-01T16:56:13;4.07;;;1.70;;
71963;SDS011;59834;52.124;5.422;2023-03-01T16:58:40;3.88;;;1.70;;
71963;SDS011;59834;52.124;5.422;2023-03-01T17:01:14;5.03;;;1.50;;
71963;SDS011;59834;52.124;5.422;2023-03-01T17:03:43;3.38;;;1.52;;
71963;SDS011;59834;52.124;5.422;2023-03-01T17:06:11;5.43;;;2.20;;
71963;SDS011;59834;52.124;5.422;2023-03-01T17:08:40;3.58;;;1.60;;
71963;SDS011;59834;52.124;5.422;2023-03-01T17:11:15;4.93;;;1.33;;
71963;SDS011;59834;52.124;5.422;2023-03-01T17:13:44;4.90;;;1.60;;
71963;SDS011;59834;52.124;5.422;2023-03-01T17:16:12;6.35;;;1.33;;
71963;SDS011;59834;52.124;5.422;2023-03-01T17:18:40;4.57;;;2.05;;
71963;SDS011;59834;52.124;5.422;2023-03-01T17:21:08;3.72;;;1.30;;
71963;SDS011;59834;52.124;5.422;2023-03-01T17:23:36;3.20;;;1.50;;
71963;SDS011;59834;52.124;5.422;2023-03-01T17:26:05;3.20;;;1.60;;
71963;SDS011;59834;52.124;5.422;2023-03-01T17:28:32;5.15;;;2.00;;
71963;SDS011;59834;52.124;5.422;2023-03-01T17:31:00;4.10;;;1.63;;
71963;SDS011;59834;52.124;5.422;2023-03-01T17:33:28;2.88;;;1.73;;
71963;SDS011;59834;52.124;5.422;2023-03-01T17:35:58;5.70;;;2.00;;
71963;SDS011;59834;52.124;5.422;2023-03-01T17:38:25;4.63;;;1.80;;
71963;SDS011;59834;52.124;5.422;2023-03-01T17:40:52;4.95;;;1.80;;
71963;SDS011;59834;52.124;5.422;2023-03-01T17:43:19;5.35;;;1.92;;
71963;SDS011;59834;52.124;5.422;2023-03-01T17:45:45;3.15;;;1.80;;
71963;SDS011;59834;52.124;5.422;2023-03-01T17:48:14;5.13;;;1.88;;
71963;SDS011;59834;52.124;5.422;2023-03-01T17:50:41;6.23;;;2.33;;
71963;SDS011;59834;52.124;5.422;2023-03-01T17:53:07;3.33;;;1.55;;
71963;SDS011;59834;52.124;5.422;2023-03-01T17:55:35;3.95;;;1.90;;
71963;SDS011;59834;52.124;5.422;2023-03-01T17:58:03;4.95;;;1.83;;
71963;SDS011;59834;52.124;5.422;2023-03-01T18:00:31;5.65;;;2.00;;
71963;SDS011;59834;52.124;5.422;2023-03-01T18:02:58;4.43;;;2.07;;
71963;SDS011;59834;52.124;5.422;2023-03-01T18:05:25;7.93;;;2.42;;
71963;SDS011;59834;52.124;5.422;2023-03-01T18:07:52;4.53;;;2.22;;
71963;SDS011;59834;52.124;5.422;2023-03-01T18:10:19;5.88;;;2.17;;
71963;SDS011;59834;52.124;5.422;2023-03-01T18:12:46;4.95;;;1.95;;
71963;SDS011;59834;52.124;5.422;2023-03-01T18:15:12;3.97;;;1.63;;
71963;SDS011;59834;52.124;5.422;2023-03-01T18:17:39;2.95;;;1.58;;
71963;SDS011;59834;52.124;5.422;2023-03-01T18:20:06;5.38;;;2.38;;
71963;SDS011;59834;52.124;5.422;2023-03-01T18:22:33;4.20;;;1.75;;
71963;SDS011;59834;52.124;5.422;2023-03-01T18:24:59;5.53;;;2.53;;
71963;SDS011;59834;52.124;5.422;2023-03-01T18:27:26;6.63;;;2.47;;
71963;SDS011;59834;52.124;5.422;2023-03-01T18:29:52;4.40;;;1.88;;
71963;SDS011;59834;52.124;5.422;2023-03-01T18:32:20;6.55;;;2.30;;
71963;SDS011;59834;52.124;5.422;2023-03-01T18:34:47;9.52;;;1.92;;
71963;SDS011;59834;52.124;5.422;2023-03-01T18:37:13;5.15;;;3.08;;
71963;SDS011;59834;52.124;5.422;2023-03-01T18:39:41;4.07;;;1.93;;
71963;SDS011;59834;52.124;5.422;2023-03-01T18:42:07;3.65;;;1.73;;
71963;SDS011;59834;52.124;5.422;2023-03-01T18:44:34;6.43;;;1.83;;
71963;SDS011;59834;52.124;5.422;2023-03-01T18:47:01;4.75;;;2.33;;
71963;SDS011;59834;52.124;5.422;2023-03-01T18:49:27;8.27;;;2.42;;
71963;SDS011;59834;52.124;5.422;2023-03-01T18:51:54;3.90;;;2.20;;
71963;SDS011;59834;52.124;5.422;2023-03-01T18:54:21;4.55;;;2.35;;
71963;SDS011;59834;52.124;5.422;2023-03-01T18:56:48;6.63;;;2.25;;
71963;SDS011;59834;52.124;5.422;2023-03-01T18:59:14;4.97;;;2.08;;
71963;SDS011;59834;52.124;5.422;2023-03-01T19:01:41;3.65;;;1.95;;
71963;SDS011;59834;52.124;5.422;2023-03-01T19:04:09;6.13;;;2.30;;
71963;SDS011;59834;52.124;5.422;2023-03-01T19:06:36;7.20;;;2.03;;
71963;SDS011;59834;52.124;5.422;2023-03-01T19:09:04;4.25;;;1.83;;
71963;SDS011;59834;52.124;5.422;2023-03-01T19:11:32;4.28;;;2.47;;
71963;SDS011;59834;52.124;5.422;2023-03-01T19:14:00;4.72;;;1.73;;
71963;SDS011;59834;52.124;5.422;2023-03-01T19:16:29;8.70;;;2.43;;
71963;SDS011;59834;52.124;5.422;2023-03-01T19:19:01;6.22;;;2.63;;
71963;SDS011;59834;52.124;5.422;2023-03-01T19:21:30;6.13;;;1.98;;
71963;SDS011;59834;52.124;5.422;2023-03-01T19:23:58;7.47;;;2.55;;
71963;SDS011;59834;52.124;5.422;2023-03-01T19:26:25;7.70;;;3.10;;
71963;SDS011;59834;52.124;5.422;2023-03-01T19:28:53;4.00;;;2.63;;
71963;SDS011;59834;52.124;5.422;2023-03-01T19:31:22;6.05;;;2.38;;
71963;SDS011;59834;52.124;5.422;2023-03-01T19:33:52;5.93;;;2.60;;
71963;SDS011;59834;52.124;5.422;2023-03-01T19:36:30;6.53;;;2.72;;
71963;SDS011;59834;52.124;5.422;2023-03-01T19:39:03;8.93;;;2.88;;
71963;SDS011;59834;52.124;5.422;2023-03-01T19:41:31;4.97;;;2.40;;
71963;SDS011;59834;52.124;5.422;2023-03-01T19:43:58;5.18;;;2.83;;
71963;SDS011;59834;52.124;5.422;2023-03-01T19:46:27;5.43;;;2.80;;
71963;SDS011;59834;52.124;5.422;2023-03-01T19:48:54;6.55;;;2.92;;
71963;SDS011;59834;52.124;5.422;2023-03-01T19:51:21;9.45;;;3.30;;
71963;SDS011;59834;52.124;5.422;2023-03-01T19:53:48;6.00;;;2.77;;
71963;SDS011;59834;52.124;5.422;2023-03-01T19:56:14;5.05;;;2.78;;
71963;SDS011;59834;52.124;5.422;2023-03-01T19:58:41;6.30;;;2.97;;
71963;SDS011;59834;52.124;5.422;2023-03-01T20:01:15;6.47;;;2.65;;
71963;SDS011;59834;52.124;5.422;2023-03-01T20:03:43;10.02;;;2.80;;
71963;SDS011;59834;52.124;5.422;2023-03-01T20:06:15;9.37;;;2.80;;
71963;SDS011;59834;52.124;5.422;2023-03-01T20:08:45;6.82;;;3.47;;